sensor_id;sensor_type;location;lat;lon;timestamp;temperature;humidity
68433;DHT22;55412;51.350;17.056;2022-07-06T00:01:49;16.00;76.80
68433;DHT22;55412;51.350;17.056;2022-07-06T00:04:17;16.00;76.70
68433;DHT22;55412;51.350;17.056;2022-07-06T00:06:44;16.00;76.70
68433;DHT22;55412;51.350;17.056;2022-07-06T00:09:10;16.00;76.50
68433;DHT22;55412;51.350;17.056;2022-07-06T00:11:36;16.10;76.50
68433;DHT22;55412;51.350;17.056;2022-07-06T00:14:02;16.10;76.40
68433;DHT22;55412;51.350;17.056;2022-07-06T00:16:29;16.10;76.30
68433;DHT22;55412;51.350;17.056;2022-07-06T00:18:55;16.10;76.40
68433;DHT22;55412;51.350;17.056;2022-07-06T00:21:21;16.10;76.20
68433;DHT22;55412;51.350;17.056;2022-07-06T00:23:47;16.10;76.10
68433;DHT22;55412;51.350;17.056;2022-07-06T00:26:14;16.20;76.00
68433;DHT22;55412;51.350;17.056;2022-07-06T00:28:40;16.10;75.90
68433;DHT22;55412;51.350;17.056;2022-07-06T00:31:06;16.10;75.80
68433;DHT22;55412;51.350;17.056;2022-07-06T00:33:32;16.10;75.80
68433;DHT22;55412;51.350;17.056;2022-07-06T00:35:58;16.10;75.70
68433;DHT22;55412;51.350;17.056;2022-07-06T00:38:24;16.10;75.50
68433;DHT22;55412;51.350;17.056;2022-07-06T00:40:50;16.00;75.40
68433;DHT22;55412;51.350;17.056;2022-07-06T00:43:16;16.00;75.20
68433;DHT22;55412;51.350;17.056;2022-07-06T00:45:42;16.00;75.20
68433;DHT22;55412;51.350;17.056;2022-07-06T00:48:10;16.00;75.00
68433;DHT22;55412;51.350;17.056;2022-07-06T00:50:37;15.90;74.70
68433;DHT22;55412;51.350;17.056;2022-07-06T00:53:05;15.70;74.60
68433;DHT22;55412;51.350;17.056;2022-07-06T00:55:35;15.70;74.80
68433;DHT22;55412;51.350;17.056;2022-07-06T00:58:06;15.60;75.00
68433;DHT22;55412;51.350;17.056;2022-07-06T01:00:32;15.50;75.20
68433;DHT22;55412;51.350;17.056;2022-07-06T01:02:59;15.50;75.60
68433;DHT22;55412;51.350;17.056;2022-07-06T01:05:25;15.50;75.50
68433;DHT22;55412;51.350;17.056;2022-07-06T01:07:52;15.40;75.40
68433;DHT22;55412;51.350;17.056;2022-07-06T01:10:20;15.40;75.50
68433;DHT22;55412;51.350;17.056;2022-07-06T01:12:47;15.30;75.50
68433;DHT22;55412;51.350;17.056;2022-07-06T01:15:19;15.20;75.70
68433;DHT22;55412;51.350;17.056;2022-07-06T01:17:47;15.20;76.00
68433;DHT22;55412;51.350;17.056;2022-07-06T01:20:17;15.10;76.20
68433;DHT22;55412;51.350;17.056;2022-07-06T01:22:49;15.10;76.50
68433;DHT22;55412;51.350;17.056;2022-07-06T01:25:16;15.20;76.80
68433;DHT22;55412;51.350;17.056;2022-07-06T01:27:42;15.20;77.10
68433;DHT22;55412;51.350;17.056;2022-07-06T01:30:10;15.20;77.00
68433;DHT22;55412;51.350;17.056;2022-07-06T01:32:38;15.20;77.00
68433;DHT22;55412;51.350;17.056;2022-07-06T01:35:07;15.20;77.10
68433;DHT22;55412;51.350;17.056;2022-07-06T01:37:35;15.20;77.00
68433;DHT22;55412;51.350;17.056;2022-07-06T01:40:03;15.20;76.80
68433;DHT22;55412;51.350;17.056;2022-07-06T01:42:31;15.20;76.90
68433;DHT22;55412;51.350;17.056;2022-07-06T01:44:57;15.20;76.70
68433;DHT22;55412;51.350;17.056;2022-07-06T01:47:23;15.20;76.40
68433;DHT22;55412;51.350;17.056;2022-07-06T01:49:49;15.10;76.60
68433;DHT22;55412;51.350;17.056;2022-07-06T01:52:15;15.00;76.80
68433;DHT22;55412;51.350;17.056;2022-07-06T01:54:41;14.90;76.90
68433;DHT22;55412;51.350;17.056;2022-07-06T01:57:08;14.80;77.20
68433;DHT22;55412;51.350;17.056;2022-07-06T01:59:34;14.80;77.10
68433;DHT22;55412;51.350;17.056;2022-07-06T02:02:00;14.80;77.20
68433;DHT22;55412;51.350;17.056;2022-07-06T02:04:26;14.70;77.10
68433;DHT22;55412;51.350;17.056;2022-07-06T02:06:52;14.70;77.40
68433;DHT22;55412;51.350;17.056;2022-07-06T02:09:18;14.70;77.40
68433;DHT22;55412;51.350;17.056;2022-07-06T02:11:44;14.70;77.60
68433;DHT22;55412;51.350;17.056;2022-07-06T02:14:11;14.70;77.90
68433;DHT22;55412;51.350;17.056;2022-07-06T02:16:37;14.70;78.00
68433;DHT22;55412;51.350;17.056;2022-07-06T02:19:03;14.70;78.20
68433;DHT22;55412;51.350;17.056;2022-07-06T02:21:29;14.70;78.40
68433;DHT22;55412;51.350;17.056;2022-07-06T02:23:55;14.80;78.50
68433;DHT22;55412;51.350;17.056;2022-07-06T02:26:21;14.80;78.40
68433;DHT22;55412;51.350;17.056;2022-07-06T02:28:47;14.80;78.30
68433;DHT22;55412;51.350;17.056;2022-07-06T02:31:14;14.80;77.70
68433;DHT22;55412;51.350;17.056;2022-07-06T02:33:40;14.70;77.70
68433;DHT22;55412;51.350;17.056;2022-07-06T02:36:07;14.70;77.50
68433;DHT22;55412;51.350;17.056;2022-07-06T02:38:33;14.70;77.60
68433;DHT22;55412;51.350;17.056;2022-07-06T02:40:59;14.70;77.80
68433;DHT22;55412;51.350;17.056;2022-07-06T02:43:25;14.70;77.80
68433;DHT22;55412;51.350;17.056;2022-07-06T02:45:51;14.70;77.90
68433;DHT22;55412;51.350;17.056;2022-07-06T02:48:17;14.70;77.80
68433;DHT22;55412;51.350;17.056;2022-07-06T02:50:47;14.70;77.90
68433;DHT22;55412;51.350;17.056;2022-07-06T02:53:13;14.80;77.90
68433;DHT22;55412;51.350;17.056;2022-07-06T02:55:39;14.80;77.90
68433;DHT22;55412;51.350;17.056;2022-07-06T02:58:05;14.80;77.80
68433;DHT22;55412;51.350;17.056;2022-07-06T03:00:31;14.80;77.90
68433;DHT22;55412;51.350;17.056;2022-07-06T03:02:58;14.90;78.10
68433;DHT22;55412;51.350;17.056;2022-07-06T03:05:24;14.90;78.40
68433;DHT22;55412;51.350;17.056;2022-07-06T03:07:50;15.00;78.50
68433;DHT22;55412;51.350;17.056;2022-07-06T03:10:16;15.00;78.40
68433;DHT22;55412;51.350;17.056;2022-07-06T03:12:42;15.10;78.50
68433;DHT22;55412;51.350;17.056;2022-07-06T03:15:08;15.10;78.60
68433;DHT22;55412;51.350;17.056;2022-07-06T03:17:36;15.20;78.20
68433;DHT22;55412;51.350;17.056;2022-07-06T03:20:04;15.20;78.10
68433;DHT22;55412;51.350;17.056;2022-07-06T03:22:31;15.20;78.10
68433;DHT22;55412;51.350;17.056;2022-07-06T03:24:57;15.30;78.00
68433;DHT22;55412;51.350;17.056;2022-07-06T03:27:23;15.30;77.90
68433;DHT22;55412;51.350;17.056;2022-07-06T03:29:49;15.30;77.80
68433;DHT22;55412;51.350;17.056;2022-07-06T03:32:15;15.40;77.80
68433;DHT22;55412;51.350;17.056;2022-07-06T03:34:42;15.50;77.80
68433;DHT22;55412;51.350;17.056;2022-07-06T03:37:08;15.50;77.90
68433;DHT22;55412;51.350;17.056;2022-07-06T03:39:34;15.50;77.80
68433;DHT22;55412;51.350;17.056;2022-07-06T03:42:00;15.60;77.60
68433;DHT22;55412;51.350;17.056;2022-07-06T03:44:26;15.60;77.10
68433;DHT22;55412;51.350;17.056;2022-07-06T03:46:52;15.60;76.90
68433;DHT22;55412;51.350;17.056;2022-07-06T03:49:21;15.70;76.90
68433;DHT22;55412;51.350;17.056;2022-07-06T03:51:47;15.60;76.50
68433;DHT22;55412;51.350;17.056;2022-07-06T03:54:13;15.60;76.40
68433;DHT22;55412;51.350;17.056;2022-07-06T03:56:39;15.50;76.60
68433;DHT22;55412;51.350;17.056;2022-07-06T03:59:05;15.50;76.50
68433;DHT22;55412;51.350;17.056;2022-07-06T04:01:31;15.50;76.80
68433;DHT22;55412;51.350;17.056;2022-07-06T04:03:58;15.50;77.40
68433;DHT22;55412;51.350;17.056;2022-07-06T04:06:24;15.50;77.40
68433;DHT22;55412;51.350;17.056;2022-07-06T04:08:50;15.50;77.50
68433;DHT22;55412;51.350;17.056;2022-07-06T04:11:16;15.50;77.70
68433;DHT22;55412;51.350;17.056;2022-07-06T04:13:42;15.50;77.70
68433;DHT22;55412;51.350;17.056;2022-07-06T04:16:08;15.60;77.80
68433;DHT22;55412;51.350;17.056;2022-07-06T04:18:34;15.60;77.10
68433;DHT22;55412;51.350;17.056;2022-07-06T04:21:00;15.60;77.40
68433;DHT22;55412;51.350;17.056;2022-07-06T04:23:28;15.60;77.50
68433;DHT22;55412;51.350;17.056;2022-07-06T04:25:54;15.60;77.30
68433;DHT22;55412;51.350;17.056;2022-07-06T04:28:20;15.60;77.20
68433;DHT22;55412;51.350;17.056;2022-07-06T04:30:46;15.60;77.40
68433;DHT22;55412;51.350;17.056;2022-07-06T04:33:12;15.60;77.20
68433;DHT22;55412;51.350;17.056;2022-07-06T04:35:38;15.70;77.20
68433;DHT22;55412;51.350;17.056;2022-07-06T04:38:04;15.70;77.10
68433;DHT22;55412;51.350;17.056;2022-07-06T04:40:30;15.70;76.80
68433;DHT22;55412;51.350;17.056;2022-07-06T04:42:57;15.60;76.90
68433;DHT22;55412;51.350;17.056;2022-07-06T04:45:23;15.70;76.50
68433;DHT22;55412;51.350;17.056;2022-07-06T04:47:49;15.70;77.00
68433;DHT22;55412;51.350;17.056;2022-07-06T04:50:15;15.60;77.00
68433;DHT22;55412;51.350;17.056;2022-07-06T04:52:42;15.70;77.30
68433;DHT22;55412;51.350;17.056;2022-07-06T04:55:08;15.70;77.40
68433;DHT22;55412;51.350;17.056;2022-07-06T04:57:35;15.70;77.50
68433;DHT22;55412;51.350;17.056;2022-07-06T05:00:03;15.70;77.60
68433;DHT22;55412;51.350;17.056;2022-07-06T05:02:30;15.80;77.80
68433;DHT22;55412;51.350;17.056;2022-07-06T05:04:56;15.80;77.90
68433;DHT22;55412;51.350;17.056;2022-07-06T05:07:22;15.80;77.80
68433;DHT22;55412;51.350;17.056;2022-07-06T05:09:48;15.80;77.80
68433;DHT22;55412;51.350;17.056;2022-07-06T05:12:14;15.80;78.10
68433;DHT22;55412;51.350;17.056;2022-07-06T05:14:40;15.90;78.70
68433;DHT22;55412;51.350;17.056;2022-07-06T05:17:06;15.80;79.00
68433;DHT22;55412;51.350;17.056;2022-07-06T05:19:32;15.80;79.20
68433;DHT22;55412;51.350;17.056;2022-07-06T05:21:58;15.90;79.10
68433;DHT22;55412;51.350;17.056;2022-07-06T05:24:24;15.90;79.00
68433;DHT22;55412;51.350;17.056;2022-07-06T05:26:50;16.00;78.70
68433;DHT22;55412;51.350;17.056;2022-07-06T05:29:16;16.00;78.70
68433;DHT22;55412;51.350;17.056;2022-07-06T05:31:42;16.10;78.70
68433;DHT22;55412;51.350;17.056;2022-07-06T05:34:08;16.20;78.70
68433;DHT22;55412;51.350;17.056;2022-07-06T05:36:34;16.20;78.50
68433;DHT22;55412;51.350;17.056;2022-07-06T05:39:00;16.30;78.80
68433;DHT22;55412;51.350;17.056;2022-07-06T05:41:26;16.30;79.00
68433;DHT22;55412;51.350;17.056;2022-07-06T05:43:52;16.40;79.40
68433;DHT22;55412;51.350;17.056;2022-07-06T05:46:18;16.50;79.10
68433;DHT22;55412;51.350;17.056;2022-07-06T05:48:44;16.50;78.90
68433;DHT22;55412;51.350;17.056;2022-07-06T05:51:29;16.60;78.90
68433;DHT22;55412;51.350;17.056;2022-07-06T05:53:55;16.60;78.20
68433;DHT22;55412;51.350;17.056;2022-07-06T05:56:21;16.60;79.00
68433;DHT22;55412;51.350;17.056;2022-07-06T05:58:47;16.50;79.10
68433;DHT22;55412;51.350;17.056;2022-07-06T06:01:13;16.40;79.70
68433;DHT22;55412;51.350;17.056;2022-07-06T06:03:39;16.20;79.10
68433;DHT22;55412;51.350;17.056;2022-07-06T06:06:06;16.10;79.20
68433;DHT22;55412;51.350;17.056;2022-07-06T06:08:32;16.10;79.90
68433;DHT22;55412;51.350;17.056;2022-07-06T06:10:58;16.10;80.20
68433;DHT22;55412;51.350;17.056;2022-07-06T06:13:24;16.20;80.40
68433;DHT22;55412;51.350;17.056;2022-07-06T06:15:50;16.30;80.00
68433;DHT22;55412;51.350;17.056;2022-07-06T06:18:16;16.40;79.70
68433;DHT22;55412;51.350;17.056;2022-07-06T06:20:45;16.50;80.00
68433;DHT22;55412;51.350;17.056;2022-07-06T06:23:11;16.60;79.70
68433;DHT22;55412;51.350;17.056;2022-07-06T06:25:38;16.70;79.90
68433;DHT22;55412;51.350;17.056;2022-07-06T06:28:06;16.80;79.30
68433;DHT22;55412;51.350;17.056;2022-07-06T06:30:34;16.90;78.60
68433;DHT22;55412;51.350;17.056;2022-07-06T06:33:10;17.00;78.30
68433;DHT22;55412;51.350;17.056;2022-07-06T06:35:38;17.10;77.60
68433;DHT22;55412;51.350;17.056;2022-07-06T06:38:07;17.20;76.70
68433;DHT22;55412;51.350;17.056;2022-07-06T06:40:33;17.30;76.10
68433;DHT22;55412;51.350;17.056;2022-07-06T06:42:59;17.30;76.00
68433;DHT22;55412;51.350;17.056;2022-07-06T06:45:26;17.30;75.80
68433;DHT22;55412;51.350;17.056;2022-07-06T06:47:52;17.40;75.90
68433;DHT22;55412;51.350;17.056;2022-07-06T06:50:18;17.50;75.50
68433;DHT22;55412;51.350;17.056;2022-07-06T06:52:44;17.60;74.80
68433;DHT22;55412;51.350;17.056;2022-07-06T06:55:10;17.80;74.50
68433;DHT22;55412;51.350;17.056;2022-07-06T06:57:36;18.00;73.50
68433;DHT22;55412;51.350;17.056;2022-07-06T07:00:06;18.30;73.70
68433;DHT22;55412;51.350;17.056;2022-07-06T07:02:32;18.90;73.70
68433;DHT22;55412;51.350;17.056;2022-07-06T07:04:58;19.40;71.80
68433;DHT22;55412;51.350;17.056;2022-07-06T07:07:25;20.10;69.70
68433;DHT22;55412;51.350;17.056;2022-07-06T07:09:51;21.00;69.10
68433;DHT22;55412;51.350;17.056;2022-07-06T07:12:17;21.80;64.90
68433;DHT22;55412;51.350;17.056;2022-07-06T07:14:43;22.50;62.70
68433;DHT22;55412;51.350;17.056;2022-07-06T07:17:10;23.20;59.90
68433;DHT22;55412;51.350;17.056;2022-07-06T07:19:37;24.00;58.80
68433;DHT22;55412;51.350;17.056;2022-07-06T07:22:03;24.70;56.30
68433;DHT22;55412;51.350;17.056;2022-07-06T07:24:30;25.20;55.90
68433;DHT22;55412;51.350;17.056;2022-07-06T07:26:56;25.70;54.10
68433;DHT22;55412;51.350;17.056;2022-07-06T07:29:22;26.20;52.20
68433;DHT22;55412;51.350;17.056;2022-07-06T07:31:48;26.50;52.50
68433;DHT22;55412;51.350;17.056;2022-07-06T07:34:14;26.90;50.40
68433;DHT22;55412;51.350;17.056;2022-07-06T07:36:41;27.20;49.40
68433;DHT22;55412;51.350;17.056;2022-07-06T07:39:07;27.40;46.10
68433;DHT22;55412;51.350;17.056;2022-07-06T07:41:33;27.40;47.10
68433;DHT22;55412;51.350;17.056;2022-07-06T07:43:59;27.40;46.80
68433;DHT22;55412;51.350;17.056;2022-07-06T07:46:25;27.40;46.70
68433;DHT22;55412;51.350;17.056;2022-07-06T07:48:51;27.50;45.30
68433;DHT22;55412;51.350;17.056;2022-07-06T07:51:17;27.50;45.40
68433;DHT22;55412;51.350;17.056;2022-07-06T07:53:45;27.50;46.50
68433;DHT22;55412;51.350;17.056;2022-07-06T07:56:11;27.70;45.60
68433;DHT22;55412;51.350;17.056;2022-07-06T07:58:37;27.90;46.20
68433;DHT22;55412;51.350;17.056;2022-07-06T08:01:03;27.90;45.50
68433;DHT22;55412;51.350;17.056;2022-07-06T08:03:30;27.80;45.50
68433;DHT22;55412;51.350;17.056;2022-07-06T08:05:57;27.90;45.30
68433;DHT22;55412;51.350;17.056;2022-07-06T08:08:24;28.00;45.60
68433;DHT22;55412;51.350;17.056;2022-07-06T08:10:50;28.20;46.60
68433;DHT22;55412;51.350;17.056;2022-07-06T08:13:17;28.20;44.20
68433;DHT22;55412;51.350;17.056;2022-07-06T08:15:43;28.10;44.90
68433;DHT22;55412;51.350;17.056;2022-07-06T08:18:09;28.20;45.80
68433;DHT22;55412;51.350;17.056;2022-07-06T08:20:36;28.20;45.70
68433;DHT22;55412;51.350;17.056;2022-07-06T08:23:03;28.30;45.40
68433;DHT22;55412;51.350;17.056;2022-07-06T08:25:30;28.50;44.70
68433;DHT22;55412;51.350;17.056;2022-07-06T08:27:57;28.60;46.50
68433;DHT22;55412;51.350;17.056;2022-07-06T08:30:23;28.60;45.00
68433;DHT22;55412;51.350;17.056;2022-07-06T08:32:49;28.60;44.40
68433;DHT22;55412;51.350;17.056;2022-07-06T08:35:16;28.50;45.40
68433;DHT22;55412;51.350;17.056;2022-07-06T08:37:42;28.30;44.30
68433;DHT22;55412;51.350;17.056;2022-07-06T08:40:09;28.10;44.20
68433;DHT22;55412;51.350;17.056;2022-07-06T08:42:36;28.10;46.00
68433;DHT22;55412;51.350;17.056;2022-07-06T08:45:05;28.20;45.60
68433;DHT22;55412;51.350;17.056;2022-07-06T08:47:32;28.20;45.50
68433;DHT22;55412;51.350;17.056;2022-07-06T08:50:03;28.30;45.20
68433;DHT22;55412;51.350;17.056;2022-07-06T08:52:30;28.30;44.90
68433;DHT22;55412;51.350;17.056;2022-07-06T08:54:57;28.40;45.90
68433;DHT22;55412;51.350;17.056;2022-07-06T08:57:24;28.40;45.50
68433;DHT22;55412;51.350;17.056;2022-07-06T08:59:51;28.40;44.20
68433;DHT22;55412;51.350;17.056;2022-07-06T09:02:17;28.20;45.30
68433;DHT22;55412;51.350;17.056;2022-07-06T09:04:44;28.20;45.00
68433;DHT22;55412;51.350;17.056;2022-07-06T09:07:12;28.30;45.00
68433;DHT22;55412;51.350;17.056;2022-07-06T09:09:40;28.30;45.50
68433;DHT22;55412;51.350;17.056;2022-07-06T09:12:11;28.30;45.30
68433;DHT22;55412;51.350;17.056;2022-07-06T09:14:39;28.30;45.90
68433;DHT22;55412;51.350;17.056;2022-07-06T09:17:06;28.30;45.60
68433;DHT22;55412;51.350;17.056;2022-07-06T09:19:34;28.30;46.20
68433;DHT22;55412;51.350;17.056;2022-07-06T09:22:02;28.50;46.20
68433;DHT22;55412;51.350;17.056;2022-07-06T09:24:28;28.50;45.70
68433;DHT22;55412;51.350;17.056;2022-07-06T09:26:58;28.50;44.70
68433;DHT22;55412;51.350;17.056;2022-07-06T09:29:28;28.50;44.50
68433;DHT22;55412;51.350;17.056;2022-07-06T09:32:03;28.40;44.90
68433;DHT22;55412;51.350;17.056;2022-07-06T09:34:44;28.40;45.20
68433;DHT22;55412;51.350;17.056;2022-07-06T09:37:12;28.30;44.00
68433;DHT22;55412;51.350;17.056;2022-07-06T09:39:39;28.20;44.30
68433;DHT22;55412;51.350;17.056;2022-07-06T09:42:06;28.20;45.40
68433;DHT22;55412;51.350;17.056;2022-07-06T09:44:40;28.30;45.60
68433;DHT22;55412;51.350;17.056;2022-07-06T09:47:09;28.30;44.30
68433;DHT22;55412;51.350;17.056;2022-07-06T09:49:38;28.30;44.00
68433;DHT22;55412;51.350;17.056;2022-07-06T09:52:09;28.30;44.80
68433;DHT22;55412;51.350;17.056;2022-07-06T09:54:37;28.20;44.20
68433;DHT22;55412;51.350;17.056;2022-07-06T09:57:05;28.30;44.00
68433;DHT22;55412;51.350;17.056;2022-07-06T09:59:34;28.40;43.80
68433;DHT22;55412;51.350;17.056;2022-07-06T10:02:03;28.50;42.60
68433;DHT22;55412;51.350;17.056;2022-07-06T10:04:31;28.50;40.10
68433;DHT22;55412;51.350;17.056;2022-07-06T10:06:58;28.50;41.30
68433;DHT22;55412;51.350;17.056;2022-07-06T10:09:27;28.40;41.40
68433;DHT22;55412;51.350;17.056;2022-07-06T10:12:01;28.20;42.00
68433;DHT22;55412;51.350;17.056;2022-07-06T10:14:33;27.90;41.90
68433;DHT22;55412;51.350;17.056;2022-07-06T10:17:01;27.80;42.30
68433;DHT22;55412;51.350;17.056;2022-07-06T10:19:30;27.70;41.50
68433;DHT22;55412;51.350;17.056;2022-07-06T10:21:58;27.50;40.70
68433;DHT22;55412;51.350;17.056;2022-07-06T10:24:27;27.30;41.60
68433;DHT22;55412;51.350;17.056;2022-07-06T10:26:55;27.40;41.60
68433;DHT22;55412;51.350;17.056;2022-07-06T10:29:21;27.60;40.60
68433;DHT22;55412;51.350;17.056;2022-07-06T10:31:48;27.70;41.60
68433;DHT22;55412;51.350;17.056;2022-07-06T10:34:18;27.80;41.40
68433;DHT22;55412;51.350;17.056;2022-07-06T10:36:52;27.90;41.20
68433;DHT22;55412;51.350;17.056;2022-07-06T10:39:38;27.80;39.60
68433;DHT22;55412;51.350;17.056;2022-07-06T10:42:45;27.60;39.60
68433;DHT22;55412;51.350;17.056;2022-07-06T10:50:49;26.30;40.80
68433;DHT22;55412;51.350;17.056;2022-07-06T10:53:27;26.00;42.20
68433;DHT22;55412;51.350;17.056;2022-07-06T10:55:57;25.70;43.20
68433;DHT22;55412;51.350;17.056;2022-07-06T10:58:47;25.50;43.70
68433;DHT22;55412;51.350;17.056;2022-07-06T11:01:17;25.20;43.70
68433;DHT22;55412;51.350;17.056;2022-07-06T11:03:45;24.90;44.10
68433;DHT22;55412;51.350;17.056;2022-07-06T11:06:25;24.70;44.70
68433;DHT22;55412;51.350;17.056;2022-07-06T11:08:58;24.60;45.70
68433;DHT22;55412;51.350;17.056;2022-07-06T11:14:07;24.50;46.00
68433;DHT22;55412;51.350;17.056;2022-07-06T11:19:23;24.50;44.40
68433;DHT22;55412;51.350;17.056;2022-07-06T11:21:53;24.40;43.80
68433;DHT22;55412;51.350;17.056;2022-07-06T11:24:28;24.40;43.00
68433;DHT22;55412;51.350;17.056;2022-07-06T11:26:57;24.50;44.80
68433;DHT22;55412;51.350;17.056;2022-07-06T11:29:26;24.80;44.70
68433;DHT22;55412;51.350;17.056;2022-07-06T11:31:58;24.90;44.50
68433;DHT22;55412;51.350;17.056;2022-07-06T11:34:33;25.00;44.90
68433;DHT22;55412;51.350;17.056;2022-07-06T11:37:03;25.00;44.70
68433;DHT22;55412;51.350;17.056;2022-07-06T11:39:32;24.90;43.40
68433;DHT22;55412;51.350;17.056;2022-07-06T11:42:00;24.70;43.20
68433;DHT22;55412;51.350;17.056;2022-07-06T11:44:27;24.60;43.80
68433;DHT22;55412;51.350;17.056;2022-07-06T11:46:53;24.60;44.10
68433;DHT22;55412;51.350;17.056;2022-07-06T11:49:24;24.70;45.50
68433;DHT22;55412;51.350;17.056;2022-07-06T11:51:50;24.80;44.40
68433;DHT22;55412;51.350;17.056;2022-07-06T11:54:21;25.00;42.80
68433;DHT22;55412;51.350;17.056;2022-07-06T11:56:55;25.00;41.80
68433;DHT22;55412;51.350;17.056;2022-07-06T11:59:27;25.10;42.30
68433;DHT22;55412;51.350;17.056;2022-07-06T12:02:08;25.20;44.10
68433;DHT22;55412;51.350;17.056;2022-07-06T12:04:40;25.50;44.00
68433;DHT22;55412;51.350;17.056;2022-07-06T12:07:09;25.70;42.10
68433;DHT22;55412;51.350;17.056;2022-07-06T12:09:38;25.80;41.10
68433;DHT22;55412;51.350;17.056;2022-07-06T12:12:06;25.90;41.10
68433;DHT22;55412;51.350;17.056;2022-07-06T12:14:35;25.90;40.60
68433;DHT22;55412;51.350;17.056;2022-07-06T12:17:08;25.90;39.20
68433;DHT22;55412;51.350;17.056;2022-07-06T12:19:36;26.00;38.30
68433;DHT22;55412;51.350;17.056;2022-07-06T12:22:04;26.10;39.20
68433;DHT22;55412;51.350;17.056;2022-07-06T12:24:32;26.30;39.30
68433;DHT22;55412;51.350;17.056;2022-07-06T12:27:33;26.40;37.60
68433;DHT22;55412;51.350;17.056;2022-07-06T12:30:09;26.50;38.60
68433;DHT22;55412;51.350;17.056;2022-07-06T12:32:36;26.50;37.40
68433;DHT22;55412;51.350;17.056;2022-07-06T12:35:09;26.50;35.80
68433;DHT22;55412;51.350;17.056;2022-07-06T12:37:36;26.40;36.80
68433;DHT22;55412;51.350;17.056;2022-07-06T12:40:12;26.30;39.30
68433;DHT22;55412;51.350;17.056;2022-07-06T12:42:46;26.40;37.40
68433;DHT22;55412;51.350;17.056;2022-07-06T12:45:13;26.50;36.90
68433;DHT22;55412;51.350;17.056;2022-07-06T12:47:40;26.50;37.20
68433;DHT22;55412;51.350;17.056;2022-07-06T12:50:10;26.50;37.10
68433;DHT22;55412;51.350;17.056;2022-07-06T12:52:38;26.40;37.30
68433;DHT22;55412;51.350;17.056;2022-07-06T12:55:06;26.40;36.90
68433;DHT22;55412;51.350;17.056;2022-07-06T12:57:46;26.40;36.80
68433;DHT22;55412;51.350;17.056;2022-07-06T13:00:13;26.40;36.50
68433;DHT22;55412;51.350;17.056;2022-07-06T13:02:40;26.50;36.70
68433;DHT22;55412;51.350;17.056;2022-07-06T13:05:13;26.40;36.20
68433;DHT22;55412;51.350;17.056;2022-07-06T13:07:49;26.40;37.00
68433;DHT22;55412;51.350;17.056;2022-07-06T13:10:16;26.50;35.60
68433;DHT22;55412;51.350;17.056;2022-07-06T13:12:42;26.30;35.80
68433;DHT22;55412;51.350;17.056;2022-07-06T13:15:10;26.30;37.70
68433;DHT22;55412;51.350;17.056;2022-07-06T13:17:36;26.30;37.20
68433;DHT22;55412;51.350;17.056;2022-07-06T13:20:07;26.40;35.70
68433;DHT22;55412;51.350;17.056;2022-07-06T13:22:35;26.40;37.70
68433;DHT22;55412;51.350;17.056;2022-07-06T13:25:02;26.50;36.10
68433;DHT22;55412;51.350;17.056;2022-07-06T13:27:28;26.50;34.50
68433;DHT22;55412;51.350;17.056;2022-07-06T13:29:54;26.40;34.60
68433;DHT22;55412;51.350;17.056;2022-07-06T13:32:21;26.30;35.30
68433;DHT22;55412;51.350;17.056;2022-07-06T13:34:47;26.20;35.30
68433;DHT22;55412;51.350;17.056;2022-07-06T13:37:14;26.20;35.10
68433;DHT22;55412;51.350;17.056;2022-07-06T13:39:40;26.10;35.20
68433;DHT22;55412;51.350;17.056;2022-07-06T13:42:06;26.00;36.10
68433;DHT22;55412;51.350;17.056;2022-07-06T13:44:34;25.90;36.00
68433;DHT22;55412;51.350;17.056;2022-07-06T13:47:00;25.80;36.20
68433;DHT22;55412;51.350;17.056;2022-07-06T13:49:26;25.60;36.20
68433;DHT22;55412;51.350;17.056;2022-07-06T13:51:52;25.40;37.80
68433;DHT22;55412;51.350;17.056;2022-07-06T13:54:20;25.50;36.30
68433;DHT22;55412;51.350;17.056;2022-07-06T13:56:46;25.60;36.00
68433;DHT22;55412;51.350;17.056;2022-07-06T13:59:12;25.70;35.50
68433;DHT22;55412;51.350;17.056;2022-07-06T14:01:38;25.70;35.70
68433;DHT22;55412;51.350;17.056;2022-07-06T14:04:05;25.80;36.70
68433;DHT22;55412;51.350;17.056;2022-07-06T14:06:31;25.80;36.90
68433;DHT22;55412;51.350;17.056;2022-07-06T14:08:57;25.70;36.30
68433;DHT22;55412;51.350;17.056;2022-07-06T14:11:23;25.70;36.70
68433;DHT22;55412;51.350;17.056;2022-07-06T14:13:49;25.50;37.80
68433;DHT22;55412;51.350;17.056;2022-07-06T14:16:15;25.40;37.70
68433;DHT22;55412;51.350;17.056;2022-07-06T14:18:41;25.60;38.30
68433;DHT22;55412;51.350;17.056;2022-07-06T14:21:09;25.70;37.00
68433;DHT22;55412;51.350;17.056;2022-07-06T14:23:35;25.70;36.90
68433;DHT22;55412;51.350;17.056;2022-07-06T14:26:01;25.80;36.60
68433;DHT22;55412;51.350;17.056;2022-07-06T14:28:27;25.80;36.30
68433;DHT22;55412;51.350;17.056;2022-07-06T14:30:53;25.80;36.50
68433;DHT22;55412;51.350;17.056;2022-07-06T14:33:19;25.80;36.90
68433;DHT22;55412;51.350;17.056;2022-07-06T14:35:49;25.70;37.10
68433;DHT22;55412;51.350;17.056;2022-07-06T14:38:19;25.70;37.40
68433;DHT22;55412;51.350;17.056;2022-07-06T14:40:47;25.70;37.30
68433;DHT22;55412;51.350;17.056;2022-07-06T14:43:17;25.70;36.90
68433;DHT22;55412;51.350;17.056;2022-07-06T14:45:44;25.60;37.50
68433;DHT22;55412;51.350;17.056;2022-07-06T14:48:12;25.60;38.00
68433;DHT22;55412;51.350;17.056;2022-07-06T14:50:39;25.70;36.80
68433;DHT22;55412;51.350;17.056;2022-07-06T14:53:05;25.70;37.10
68433;DHT22;55412;51.350;17.056;2022-07-06T14:55:31;25.70;37.10
68433;DHT22;55412;51.350;17.056;2022-07-06T14:57:57;25.70;39.10
68433;DHT22;55412;51.350;17.056;2022-07-06T15:00:23;25.80;36.40
68433;DHT22;55412;51.350;17.056;2022-07-06T15:02:49;25.70;35.80
68433;DHT22;55412;51.350;17.056;2022-07-06T15:05:15;25.50;35.40
68433;DHT22;55412;51.350;17.056;2022-07-06T15:07:41;25.20;35.30
68433;DHT22;55412;51.350;17.056;2022-07-06T15:10:08;25.10;36.10
68433;DHT22;55412;51.350;17.056;2022-07-06T15:12:35;25.10;37.10
68433;DHT22;55412;51.350;17.056;2022-07-06T15:15:02;24.90;36.90
68433;DHT22;55412;51.350;17.056;2022-07-06T15:17:28;24.70;37.20
68433;DHT22;55412;51.350;17.056;2022-07-06T15:19:57;24.70;36.80
68433;DHT22;55412;51.350;17.056;2022-07-06T15:22:24;24.60;36.50
68433;DHT22;55412;51.350;17.056;2022-07-06T15:24:50;24.60;37.30
68433;DHT22;55412;51.350;17.056;2022-07-06T15:27:16;24.50;36.70
68433;DHT22;55412;51.350;17.056;2022-07-06T15:29:42;24.50;37.00